Time;durP1;ratioP1;P1;durP2;ratioP2;P2;SDS_P1;SDS_P2;PMS_P1;PMS_P2;Temp;Humidity;BMP_temperature;BMP_pressure;BME280_temperature;BME280_humidity;BME280_pressure;Samples;Min_cycle;Max_cycle;Signal;HPM_P1;HPM_P2
2022/03/13 00:00:49;;;;;;;;;;;18.70;56.70;;;;;;5016207;28;1663;-69
2022/03/13 00:03:15;;;;;;;;;;;18.70;56.70;;;;;;5034045;28;1649;-69
2022/03/13 00:05:41;;;;;;;;;;;18.70;56.70;;;;;;5033832;28;1913;-69
2022/03/13 00:08:27;;;;;;;;;;;18.70;56.70;;;;;;5016064;28;1711;-69
2022/03/13 00:10:56;;;;;;;;;;;18.70;56.70;;;;;;5033774;28;871;-69
2022/03/13 00:13:31;;;;;;;;;;;18.60;56.70;;;;;;5033637;28;1868;-69
2022/03/13 00:16:01;;;;;;;;;;;18.60;56.70;;;;;;5016124;28;821;-69
2022/03/13 00:18:26;;;;;;;;;;;18.60;56.70;;;;;;5033646;28;1513;-70
2022/03/13 00:20:51;;;;;;;;;;;18.60;56.70;;;;;;5033093;28;1292;-69
2022/03/13 00:23:18;;;;;;;;;;;18.60;56.80;;;;;;5033573;28;1425;-69
2022/03/13 00:25:43;;;;;;;;;;;18.60;56.80;;;;;;5033284;28;1902;-69
2022/03/13 00:28:08;;;;;;;;;;;18.60;56.80;;;;;;5033674;28;1643;-70
2022/03/13 00:30:35;;;;;;;;;;;18.60;56.80;;;;;;5015179;28;1732;-68
2022/03/13 00:33:01;;;;;;;;;;;18.60;56.80;;;;;;5033449;28;1597;-69
2022/03/13 00:35:27;;;;;;;;;;;18.60;56.80;;;;;;5033501;28;1325;-70
2022/03/13 00:37:53;;;;;;;;;;;18.60;56.80;;;;;;5018179;28;1379;-70
2022/03/13 00:40:20;;;;;;;;;;;18.60;56.80;;;;;;4998732;28;1688;-70
2022/03/13 00:42:46;;;;;;;;;;;18.60;56.80;;;;;;5033415;28;1257;-70
2022/03/13 00:45:11;;;;;;;;;;;18.60;56.80;;;;;;5033302;28;1708;-68
2022/03/13 00:47:37;;;;;;;;;;;18.60;56.90;;;;;;5033312;28;1898;-68
2022/03/13 00:50:02;;;;;;;;;;;18.60;56.90;;;;;;5032192;28;1418;-68
2022/03/13 00:52:28;;;;;;;;;;;18.60;56.90;;;;;;5015782;28;1419;-68
2022/03/13 00:54:53;;;;;;;;;;;18.60;56.90;;;;;;5032661;28;1635;-69
2022/03/13 00:57:19;;;;;;;;;;;18.60;56.90;;;;;;5033596;28;1360;-69
2022/03/13 00:59:44;;;;;;;;;;;18.60;56.90;;;;;;5032244;28;1471;-69
2022/03/13 01:02:10;;;;;;;;;;;18.60;56.90;;;;;;5032874;28;1638;-68
2022/03/13 01:04:36;;;;;;;;;;;18.60;56.90;;;;;;5015424;28;1525;-68
2022/03/13 01:07:02;;;;;;;;;;;18.60;56.90;;;;;;5015445;28;1906;-69
2022/03/13 01:09:27;;;;;;;;;;;18.50;56.90;;;;;;5032379;28;1416;-69
2022/03/13 01:11:53;;;;;;;;;;;18.50;56.90;;;;;;5032454;28;911;-69
2022/03/13 01:14:18;;;;;;;;;;;18.50;56.90;;;;;;5032757;28;1398;-70
2022/03/13 01:16:44;;;;;;;;;;;18.50;57.00;;;;;;5032890;28;1235;-69
2022/03/13 01:19:10;;;;;;;;;;;18.50;56.90;;;;;;5014140;28;1263;-70
2022/03/13 01:21:38;;;;;;;;;;;18.50;56.90;;;;;;5032987;28;1174;-69
2022/03/13 01:24:07;;;;;;;;;;;18.50;57.00;;;;;;5015264;28;1202;-69
2022/03/13 01:26:34;;;;;;;;;;;18.50;57.00;;;;;;5032232;28;1965;-69
2022/03/13 01:29:00;;;;;;;;;;;18.50;57.00;;;;;;5032146;28;1429;-69
2022/03/13 01:31:26;;;;;;;;;;;18.50;57.00;;;;;;5015009;28;1780;-70
2022/03/13 01:33:51;;;;;;;;;;;18.50;57.00;;;;;;5032499;28;1640;-69
2022/03/13 01:36:17;;;;;;;;;;;18.50;57.00;;;;;;5014907;28;1527;-69
2022/03/13 01:38:42;;;;;;;;;;;18.50;57.00;;;;;;5014784;28;1225;-69
2022/03/13 01:41:08;;;;;;;;;;;18.50;57.00;;;;;;5032527;28;1159;-69
2022/03/13 01:43:33;;;;;;;;;;;18.50;57.00;;;;;;5032479;28;1351;-70
2022/03/13 01:45:59;;;;;;;;;;;18.50;57.10;;;;;;5014777;28;1963;-70
2022/03/13 01:48:25;;;;;;;;;;;18.50;57.00;;;;;;5014593;28;1402;-70
2022/03/13 01:50:50;;;;;;;;;;;18.50;57.10;;;;;;5031759;28;1473;-68
2022/03/13 01:53:15;;;;;;;;;;;18.50;57.00;;;;;;5018802;28;1620;-69
2022/03/13 01:55:41;;;;;;;;;;;18.50;57.10;;;;;;5032441;28;1415;-69
2022/03/13 01:58:06;;;;;;;;;;;18.50;57.10;;;;;;5014952;28;1743;-72
2022/03/13 02:00:32;;;;;;;;;;;18.50;57.10;;;;;;5031185;28;1472;-70
2022/03/13 02:02:58;;;;;;;;;;;18.50;57.10;;;;;;5032206;28;1769;-68
2022/03/13 02:05:33;;;;;;;;;;;18.50;57.10;;;;;;5031877;28;1906;-69
2022/03/13 02:07:59;;;;;;;;;;;18.50;57.10;;;;;;5014794;28;1377;-70
2022/03/13 02:10:25;;;;;;;;;;;18.50;57.10;;;;;;5031187;28;1240;-69
2022/03/13 02:12:50;;;;;;;;;;;18.50;57.10;;;;;;5031720;28;1368;-69
2022/03/13 02:15:15;;;;;;;;;;;18.50;57.10;;;;;;5014962;28;1741;-69
2022/03/13 02:17:41;;;;;;;;;;;18.40;57.10;;;;;;5014469;28;1586;-70
2022/03/13 02:20:12;;;;;;;;;;;18.40;57.10;;;;;;5031554;28;1469;-68
2022/03/13 02:22:37;;;;;;;;;;;18.40;57.10;;;;;;5031748;28;1331;-68
2022/03/13 02:25:03;;;;;;;;;;;18.40;57.10;;;;;;5032257;28;1701;-68
2022/03/13 02:27:29;;;;;;;;;;;18.50;57.20;;;;;;5031979;28;1898;-69
2022/03/13 02:29:55;;;;;;;;;;;18.40;57.10;;;;;;5032666;28;1384;-68
2022/03/13 02:32:20;;;;;;;;;;;18.50;57.10;;;;;;5017815;28;1775;-69
2022/03/13 02:34:46;;;;;;;;;;;18.40;57.10;;;;;;5017651;28;1458;-69
2022/03/13 02:37:31;;;;;;;;;;;18.50;57.10;;;;;;5017929;28;1438;-69
2022/03/13 02:39:56;;;;;;;;;;;18.50;57.10;;;;;;5000602;28;1741;-69
2022/03/13 02:42:21;;;;;;;;;;;18.40;57.10;;;;;;5025476;28;1686;-68
2022/03/13 02:44:49;;;;;;;;;;;18.50;57.10;;;;;;5017854;28;1338;-69
2022/03/13 02:47:14;;;;;;;;;;;18.40;57.10;;;;;;5035380;28;1890;-69
2022/03/13 02:49:39;;;;;;;;;;;18.40;57.10;;;;;;5016885;28;1437;-69
2022/03/13 02:52:05;;;;;;;;;;;18.50;57.10;;;;;;5035276;28;1682;-69
2022/03/13 02:54:31;;;;;;;;;;;18.40;57.10;;;;;;5017379;28;1561;-69
2022/03/13 02:56:56;;;;;;;;;;;18.50;57.10;;;;;;5017756;28;1715;-69
2022/03/13 02:59:22;;;;;;;;;;;18.50;57.10;;;;;;5016576;28;1789;-69
2022/03/13 03:01:47;;;;;;;;;;;18.40;57.10;;;;;;5017249;28;1286;-69
2022/03/13 03:04:12;;;;;;;;;;;18.40;57.10;;;;;;5016873;28;1690;-69
2022/03/13 03:06:39;;;;;;;;;;;18.40;57.10;;;;;;5017617;28;1911;-69
2022/03/13 03:09:04;;;;;;;;;;;18.40;57.10;;;;;;5016451;28;1408;-69
2022/03/13 03:11:32;;;;;;;;;;;18.40;57.00;;;;;;5016828;28;800;-67
2022/03/13 03:13:59;;;;;;;;;;;18.40;57.00;;;;;;5033191;28;1733;-67
2022/03/13 03:16:25;;;;;;;;;;;18.50;57.10;;;;;;5033708;28;1373;-67
2022/03/13 03:18:50;;;;;;;;;;;18.50;57.10;;;;;;5014555;28;1632;-67
2022/03/13 03:21:15;;;;;;;;;;;18.50;57.30;;;;;;5033694;28;1056;-70
2022/03/13 03:23:41;;;;;;;;;;;18.50;57.00;;;;;;5034309;28;1431;-67
2022/03/13 03:26:06;;;;;;;;;;;18.50;57.00;;;;;;5034384;28;1898;-69
2022/03/13 03:28:32;;;;;;;;;;;18.50;57.00;;;;;;5033642;28;1617;-69
2022/03/13 03:31:01;;;;;;;;;;;18.50;57.00;;;;;;5016543;28;1628;-69
2022/03/13 03:33:27;;;;;;;;;;;18.50;56.90;;;;;;5016487;28;1405;-69
2022/03/13 03:35:52;;;;;;;;;;;18.50;56.90;;;;;;5016558;28;1419;-69
2022/03/13 03:38:17;;;;;;;;;;;18.50;56.90;;;;;;5016141;28;1357;-69
2022/03/13 03:40:44;;;;;;;;;;;18.50;56.90;;;;;;5032618;28;1350;-70
2022/03/13 03:43:09;;;;;;;;;;;18.50;56.90;;;;;;5032583;28;1282;-69
2022/03/13 03:45:34;;;;;;;;;;;18.50;56.90;;;;;;5033246;28;1879;-69
2022/03/13 03:48:00;;;;;;;;;;;18.50;56.90;;;;;;5015105;28;1340;-69
2022/03/13 03:50:25;;;;;;;;;;;18.50;56.80;;;;;;5015836;28;1367;-69
2022/03/13 03:52:55;;;;;;;;;;;18.50;56.80;;;;;;5016700;28;1261;-69
2022/03/13 03:55:21;;;;;;;;;;;18.50;56.80;;;;;;5015836;28;1372;-69
2022/03/13 03:57:47;;;;;;;;;;;18.60;56.80;;;;;;5032651;28;1111;-70
2022/03/13 04:00:12;;;;;;;;;;;18.60;56.70;;;;;;5032236;28;1076;-69
2022/03/13 04:02:38;;;;;;;;;;;18.60;56.70;;;;;;5033221;28;1128;-69
2022/03/13 04:05:04;;;;;;;;;;;18.60;56.60;;;;;;5014983;28;1304;-69
2022/03/13 04:07:30;;;;;;;;;;;18.60;56.50;;;;;;5016031;28;1975;-69
2022/03/13 04:09:55;;;;;;;;;;;18.70;56.40;;;;;;5032649;28;1348;-69
2022/03/13 04:12:21;;;;;;;;;;;18.70;56.40;;;;;;5033087;28;1347;-69
2022/03/13 04:14:46;;;;;;;;;;;18.80;56.30;;;;;;5015840;28;1225;-70
2022/03/13 04:17:13;;;;;;;;;;;18.80;56.30;;;;;;5032598;28;1367;-69
2022/03/13 04:19:38;;;;;;;;;;;18.80;56.20;;;;;;5032578;28;1267;-69
2022/03/13 04:22:03;;;;;;;;;;;18.80;56.10;;;;;;5033001;28;1294;-69
2022/03/13 04:24:32;;;;;;;;;;;18.80;56.10;;;;;;5014690;28;1210;-69
2022/03/13 04:26:57;;;;;;;;;;;18.90;56.00;;;;;;5032694;28;1902;-69
2022/03/13 04:29:23;;;;;;;;;;;18.90;56.00;;;;;;5014410;28;1159;-69
2022/03/13 04:31:49;;;;;;;;;;;18.80;55.90;;;;;;5032286;28;1072;-69
2022/03/13 04:34:15;;;;;;;;;;;18.90;56.00;;;;;;5014842;28;1380;-69
2022/03/13 04:36:41;;;;;;;;;;;18.90;55.90;;;;;;5014793;28;1275;-69
2022/03/13 04:39:07;;;;;;;;;;;18.90;55.80;;;;;;5032947;28;1255;-69
2022/03/13 04:41:32;;;;;;;;;;;18.90;55.80;;;;;;5013807;28;1332;-69
2022/03/13 04:43:58;;;;;;;;;;;18.90;55.80;;;;;;5014621;28;1359;-69
2022/03/13 04:46:23;;;;;;;;;;;18.90;55.80;;;;;;5033067;28;1903;-69
2022/03/13 04:48:49;;;;;;;;;;;18.90;55.80;;;;;;5032116;28;1344;-69
2022/03/13 04:51:15;;;;;;;;;;;18.90;55.80;;;;;;5032164;28;1342;-69
2022/03/13 04:53:40;;;;;;;;;;;18.90;55.80;;;;;;5029933;22;3554;-70
2022/03/13 04:56:06;;;;;;;;;;;18.90;55.70;;;;;;5025914;28;1407;-71
2022/03/13 04:58:31;;;;;;;;;;;18.90;55.80;;;;;;5032768;28;1072;-71
2022/03/13 05:00:57;;;;;;;;;;;18.90;55.80;;;;;;5032433;28;1123;-71
2022/03/13 05:03:22;;;;;;;;;;;18.90;55.80;;;;;;5031623;28;1099;-71
2022/03/13 05:05:48;;;;;;;;;;;18.90;55.70;;;;;;5013499;28;1910;-71
2022/03/13 05:08:15;;;;;;;;;;;18.90;55.80;;;;;;5012206;28;1072;-71
2022/03/13 05:10:43;;;;;;;;;;;18.90;55.70;;;;;;4995279;28;1133;-71
2022/03/13 05:13:09;;;;;;;;;;;18.90;55.70;;;;;;5011800;28;1341;-71
2022/03/13 05:15:34;;;;;;;;;;;18.90;55.80;;;;;;5025456;28;1273;-71
2022/03/13 05:18:01;;;;;;;;;;;18.90;55.70;;;;;;5011858;28;1096;-71
2022/03/13 05:20:26;;;;;;;;;;;18.90;55.70;;;;;;5012256;28;1048;-71
2022/03/13 05:22:52;;;;;;;;;;;18.90;55.70;;;;;;5013492;28;1052;-70
2022/03/13 05:25:17;;;;;;;;;;;18.90;55.70;;;;;;5012249;28;1337;-71
2022/03/13 05:27:43;;;;;;;;;;;18.90;55.70;;;;;;5012216;28;1898;-71
2022/03/13 05:30:09;;;;;;;;;;;18.90;55.80;;;;;;5012488;28;1099;-71
2022/03/13 05:32:35;;;;;;;;;;;18.90;55.80;;;;;;5013005;28;1037;-71
2022/03/13 05:35:01;;;;;;;;;;;18.90;55.80;;;;;;5011570;28;1261;-71
2022/03/13 05:37:27;;;;;;;;;;;18.90;55.80;;;;;;5021132;28;1139;-71
2022/03/13 05:39:52;;;;;;;;;;;18.90;55.80;;;;;;5031244;28;1134;-71
2022/03/13 05:42:19;;;;;;;;;;;18.90;55.70;;;;;;5032552;28;1047;-71
2022/03/13 05:44:44;;;;;;;;;;;18.90;55.70;;;;;;5032201;28;1245;-70
2022/03/13 05:47:10;;;;;;;;;;;19.00;55.70;;;;;;5032440;28;1960;-71
2022/03/13 05:49:35;;;;;;;;;;;18.90;55.60;;;;;;5029163;28;1295;-71
2022/03/13 05:52:01;;;;;;;;;;;19.00;55.60;;;;;;5012382;28;1178;-70
2022/03/13 05:54:27;;;;;;;;;;;19.00;55.60;;;;;;5012305;28;1756;-71
2022/03/13 05:56:53;;;;;;;;;;;19.00;55.60;;;;;;5021431;28;1064;-71
2022/03/13 05:59:20;;;;;;;;;;;19.00;55.50;;;;;;5031640;28;1221;-71
2022/03/13 06:01:45;;;;;;;;;;;19.00;55.50;;;;;;5031780;28;1075;-71
2022/03/13 06:04:11;;;;;;;;;;;19.00;55.50;;;;;;5032477;28;1355;-71
2022/03/13 06:06:36;;;;;;;;;;;19.00;55.50;;;;;;5036246;28;1906;-70
2022/03/13 06:09:02;;;;;;;;;;;19.00;55.50;;;;;;5034948;28;1086;-70
2022/03/13 06:11:27;;;;;;;;;;;19.00;55.50;;;;;;5034896;28;1072;-71
2022/03/13 06:13:53;;;;;;;;;;;19.10;55.50;;;;;;5029757;28;1266;-71
2022/03/13 06:16:20;;;;;;;;;;;19.00;55.50;;;;;;5014804;28;1131;-71
2022/03/13 06:18:46;;;;;;;;;;;19.00;55.40;;;;;;5015326;28;1059;-69
2022/03/13 06:21:14;;;;;;;;;;;19.00;55.40;;;;;;5015760;28;1222;-71
2022/03/13 06:23:39;;;;;;;;;;;19.00;55.40;;;;;;5015826;28;1244;-71
2022/03/13 06:26:05;;;;;;;;;;;19.00;55.50;;;;;;5015945;28;1950;-70
2022/03/13 06:28:32;;;;;;;;;;;19.00;55.40;;;;;;5015287;28;1175;-71
2022/03/13 06:30:58;;;;;;;;;;;19.00;55.50;;;;;;5015719;28;1063;-70
2022/03/13 06:33:25;;;;;;;;;;;19.10;55.50;;;;;;5014617;28;1302;-70
2022/03/13 06:35:51;;;;;;;;;;;19.00;55.50;;;;;;4998074;28;1373;-69
2022/03/13 06:38:16;;;;;;;;;;;19.00;55.50;;;;;;5014501;28;1167;-69
2022/03/13 06:40:42;;;;;;;;;;;19.00;55.50;;;;;;4997163;28;1266;-69
2022/03/13 06:43:07;;;;;;;;;;;19.00;55.50;;;;;;5002461;28;1995;-69
2022/03/13 06:45:33;;;;;;;;;;;19.00;55.50;;;;;;5007433;28;1898;-71
2022/03/13 06:47:58;;;;;;;;;;;19.00;55.50;;;;;;5013283;28;993;-69
2022/03/13 06:50:24;;;;;;;;;;;19.00;55.50;;;;;;5016771;28;1054;-70
2022/03/13 06:52:50;;;;;;;;;;;19.00;55.50;;;;;;5011340;28;1174;-71
2022/03/13 06:55:15;;;;;;;;;;;19.00;55.50;;;;;;5019294;28;1329;-70
2022/03/13 06:57:41;;;;;;;;;;;19.00;55.50;;;;;;5016429;28;1103;-70
2022/03/13 07:00:07;;;;;;;;;;;19.00;55.50;;;;;;5004229;28;1059;-70
2022/03/13 07:02:32;;;;;;;;;;;19.00;55.50;;;;;;5014022;28;1212;-68
2022/03/13 07:04:57;;;;;;;;;;;19.00;55.50;;;;;;5032992;28;1400;-69
2022/03/13 07:07:23;;;;;;;;;;;19.00;55.50;;;;;;5033719;28;1910;-68
2022/03/13 07:09:49;;;;;;;;;;;19.00;55.50;;;;;;5034712;28;1296;-68
2022/03/13 07:12:16;;;;;;;;;;;19.00;55.50;;;;;;5032573;28;1370;-68
2022/03/13 07:14:46;;;;;;;;;;;19.00;55.50;;;;;;5020545;28;1902;-67
2022/03/13 07:17:15;;;;;;;;;;;19.00;55.50;;;;;;5011238;28;1033;-70
2022/03/13 07:19:43;;;;;;;;;;;19.00;55.50;;;;;;5023239;28;1085;-69
2022/03/13 07:22:12;;;;;;;;;;;19.00;55.50;;;;;;5006180;28;1014;-69
2022/03/13 07:24:37;;;;;;;;;;;19.00;55.50;;;;;;5004672;28;1367;-69
2022/03/13 07:27:03;;;;;;;;;;;19.00;55.60;;;;;;5030316;28;1961;-71
2022/03/13 07:29:28;;;;;;;;;;;19.00;55.50;;;;;;5017191;28;2189;-69
2022/03/13 07:31:56;;;;;;;;;;;19.00;55.50;;;;;;5010354;28;1920;-71
2022/03/13 07:34:24;;;;;;;;;;;19.00;55.50;;;;;;5006772;28;1292;-70
2022/03/13 07:36:51;;;;;;;;;;;19.00;55.60;;;;;;5011968;28;1203;-67
2022/03/13 07:39:18;;;;;;;;;;;19.00;55.60;;;;;;5013199;28;1263;-65
2022/03/13 07:41:43;;;;;;;;;;;19.00;55.50;;;;;;5016970;28;1212;-67
2022/03/13 07:44:10;;;;;;;;;;;19.00;55.50;;;;;;5016457;28;1384;-66
2022/03/13 07:46:35;;;;;;;;;;;19.00;55.50;;;;;;5013792;28;1966;-67
2022/03/13 07:49:01;;;;;;;;;;;19.00;55.50;;;;;;5013800;28;1150;-66
2022/03/13 07:51:26;;;;;;;;;;;19.00;55.40;;;;;;5013028;28;1565;-66
2022/03/13 07:53:51;;;;;;;;;;;19.00;55.40;;;;;;5008706;28;1739;-66
2022/03/13 07:56:18;;;;;;;;;;;19.10;55.40;;;;;;5013006;28;1323;-66
2022/03/13 07:58:44;;;;;;;;;;;19.00;55.40;;;;;;5022110;28;925;-68
2022/03/13 08:01:09;;;;;;;;;;;19.10;55.40;;;;;;5031886;28;1186;-68
2022/03/13 08:03:36;;;;;;;;;;;19.10;55.40;;;;;;5031894;28;1175;-68
2022/03/13 08:06:02;;;;;;;;;;;19.20;55.40;;;;;;5014582;28;1934;-68
2022/03/13 08:08:27;;;;;;;;;;;19.30;55.20;;;;;;5033873;28;1278;-68
2022/03/13 08:10:52;;;;;;;;;;;19.40;55.10;;;;;;5033274;28;1271;-68
2022/03/13 08:13:18;;;;;;;;;;;19.50;55.00;;;;;;5032698;28;1099;-68
2022/03/13 08:15:43;;;;;;;;;;;19.60;54.70;;;;;;5013500;28;1324;-68
2022/03/13 08:18:10;;;;;;;;;;;19.70;54.50;;;;;;5012387;28;1372;-68
2022/03/13 08:20:36;;;;;;;;;;;19.80;54.30;;;;;;5013327;28;1271;-68
2022/03/13 08:23:01;;;;;;;;;;;19.90;54.10;;;;;;5012729;28;1251;-68
2022/03/13 08:25:27;;;;;;;;;;;20.00;53.80;;;;;;5012954;28;1410;-68
2022/03/13 08:27:52;;;;;;;;;;;20.10;53.70;;;;;;5012902;28;1898;-67
2022/03/13 08:30:18;;;;;;;;;;;20.20;53.40;;;;;;5012308;28;1248;-68
2022/03/13 08:32:43;;;;;;;;;;;20.30;53.20;;;;;;5013531;28;1350;-68
2022/03/13 08:35:08;;;;;;;;;;;20.30;53.10;;;;;;5013523;28;1443;-67
2022/03/13 08:37:34;;;;;;;;;;;20.40;53.00;;;;;;5006178;28;1287;-69
2022/03/13 08:40:00;;;;;;;;;;;20.40;52.80;;;;;;5032642;28;1282;-68
2022/03/13 08:42:26;;;;;;;;;;;20.50;52.80;;;;;;5033384;28;1302;-69
2022/03/13 08:44:51;;;;;;;;;;;20.50;52.60;;;;;;5033175;28;1302;-69
2022/03/13 08:47:17;;;;;;;;;;;20.60;52.60;;;;;;5032981;28;1906;-69
2022/03/13 08:49:42;;;;;;;;;;;20.60;52.50;;;;;;5028620;28;1318;-68
2022/03/13 08:52:07;;;;;;;;;;;20.60;52.40;;;;;;5013098;28;1303;-69
2022/03/13 08:54:34;;;;;;;;;;;20.70;52.40;;;;;;5012965;28;1309;-68
2022/03/13 08:56:59;;;;;;;;;;;20.70;52.30;;;;;;5012152;28;1268;-69
2022/03/13 08:59:24;;;;;;;;;;;20.70;52.30;;;;;;5012558;28;1271;-69
2022/03/13 09:01:50;;;;;;;;;;;20.70;52.30;;;;;;5012475;28;1251;-69
2022/03/13 09:04:15;;;;;;;;;;;20.80;52.40;;;;;;5013082;28;1283;-69
2022/03/13 09:06:43;;;;;;;;;;;20.80;52.40;;;;;;5013084;28;1974;-69
2022/03/13 09:09:09;;;;;;;;;;;20.80;52.40;;;;;;5011239;28;1448;-70
2022/03/13 09:11:34;;;;;;;;;;;20.80;52.40;;;;;;5013012;28;1334;-70
2022/03/13 09:14:00;;;;;;;;;;;20.80;52.50;;;;;;5016158;28;1509;-71
2022/03/13 09:16:26;;;;;;;;;;;20.80;52.40;;;;;;5022162;28;1126;-71
2022/03/13 09:18:52;;;;;;;;;;;20.80;52.40;;;;;;5012295;28;1506;-71
2022/03/13 09:21:18;;;;;;;;;;;20.80;52.30;;;;;;5012761;28;1248;-71
2022/03/13 09:23:43;;;;;;;;;;;20.80;52.30;;;;;;5012708;28;1385;-68
2022/03/13 09:26:09;;;;;;;;;;;20.70;52.30;;;;;;5012876;28;1955;-68
2022/03/13 09:28:35;;;;;;;;;;;20.70;52.30;;;;;;5012113;28;1249;-68
2022/03/13 09:31:00;;;;;;;;;;;20.70;52.30;;;;;;5011354;28;1296;-68
2022/03/13 09:33:27;;;;;;;;;;;20.70;52.40;;;;;;5012819;28;1265;-68
2022/03/13 09:35:52;;;;;;;;;;;20.70;52.40;;;;;;5012477;28;1386;-68
2022/03/13 09:38:18;;;;;;;;;;;20.70;52.40;;;;;;5028919;28;1079;-68
2022/03/13 09:40:43;;;;;;;;;;;20.70;52.50;;;;;;5036034;28;1300;-68
2022/03/13 09:43:09;;;;;;;;;;;20.60;52.50;;;;;;5036689;28;1222;-68
2022/03/13 09:45:34;;;;;;;;;;;20.60;52.60;;;;;;5036457;28;1335;-68
2022/03/13 09:48:03;;;;;;;;;;;20.60;52.70;;;;;;5017760;28;1944;-68
2022/03/13 09:50:28;;;;;;;;;;;20.60;53.30;;;;;;5023320;28;1586;-68
2022/03/13 09:52:54;;;;;;;;;;;20.50;52.70;;;;;;5015123;28;1299;-68
2022/03/13 09:55:20;;;;;;;;;;;20.50;52.80;;;;;;5015499;28;1353;-68
2022/03/13 09:57:48;;;;;;;;;;;20.50;52.80;;;;;;5015668;28;1067;-67
2022/03/13 10:00:14;;;;;;;;;;;20.50;52.90;;;;;;5015243;28;1209;-68
2022/03/13 10:02:40;;;;;;;;;;;20.50;53.00;;;;;;5014183;28;1332;-68
2022/03/13 10:05:07;;;;;;;;;;;20.40;53.10;;;;;;5014080;28;1287;-68
2022/03/13 10:07:37;;;;;;;;;;;20.40;53.10;;;;;;5013561;28;1938;-68
2022/03/13 10:10:09;;;;;;;;;;;20.40;53.10;;;;;;5014971;28;1060;-68
2022/03/13 10:12:39;;;;;;;;;;;20.40;53.20;;;;;;5013898;28;1837;-68
2022/03/13 10:15:05;;;;;;;;;;;20.30;53.20;;;;;;5027407;28;1261;-68
2022/03/13 10:17:31;;;;;;;;;;;20.30;53.20;;;;;;5015786;28;1139;-68
2022/03/13 10:20:11;;;;;;;;;;;20.30;53.30;;;;;;5013198;28;1297;-68
2022/03/13 10:22:37;;;;;;;;;;;20.30;53.40;;;;;;5013720;28;1256;-68
2022/03/13 10:25:02;;;;;;;;;;;20.30;53.40;;;;;;5014981;28;1275;-68
2022/03/13 10:27:28;;;;;;;;;;;20.20;53.40;;;;;;5014545;28;1898;-68
2022/03/13 10:29:53;;;;;;;;;;;20.20;53.50;;;;;;5014400;28;1360;-68
2022/03/13 10:32:20;;;;;;;;;;;20.20;53.50;;;;;;5014900;28;1378;-68
2022/03/13 10:34:54;;;;;;;;;;;20.20;53.60;;;;;;5015601;28;1302;-68
2022/03/13 10:37:33;;;;;;;;;;;20.20;53.60;;;;;;5021418;28;1071;-68
2022/03/13 10:40:08;;;;;;;;;;;20.20;53.70;;;;;;5035026;28;1276;-72
2022/03/13 10:42:43;;;;;;;;;;;20.20;53.70;;;;;;5017566;28;1280;-71
2022/03/13 10:45:10;;;;;;;;;;;20.10;53.70;;;;;;5033832;28;1366;-70
2022/03/13 10:47:35;;;;;;;;;;;20.10;53.80;;;;;;5035839;28;1890;-71
2022/03/13 10:50:01;;;;;;;;;;;20.10;53.80;;;;;;5027935;28;1461;-70
2022/03/13 10:52:29;;;;;;;;;;;20.10;53.90;;;;;;5014139;28;1279;-70
2022/03/13 10:55:00;;;;;;;;;;;20.10;53.90;;;;;;5043233;22;1954;-67
2022/03/13 10:57:25;;;;;;;;;;;20.10;53.90;;;;;;5034445;28;1172;-67
2022/03/13 11:00:21;;;;;;;;;;;20.10;54.00;;;;;;5033622;28;1318;-67
2022/03/13 11:02:47;;;;;;;;;;;20.00;53.90;;;;;;5022034;28;1310;-67
2022/03/13 11:05:12;;;;;;;;;;;20.10;54.00;;;;;;5024153;28;1392;-67
2022/03/13 11:07:37;;;;;;;;;;;20.10;54.00;;;;;;5014733;28;1922;-67
2022/03/13 11:10:06;;;;;;;;;;;20.10;53.90;;;;;;5014806;28;1333;-66
2022/03/13 11:12:32;;;;;;;;;;;20.10;53.90;;;;;;5015107;28;1326;-67
2022/03/13 11:15:00;;;;;;;;;;;20.10;53.80;;;;;;5025910;28;1287;-67
2022/03/13 11:17:27;;;;;;;;;;;20.20;53.80;;;;;;5014836;28;1288;-67
2022/03/13 11:19:53;;;;;;;;;;;20.20;53.80;;;;;;5013919;28;1339;-66
2022/03/13 11:22:22;;;;;;;;;;;20.20;53.80;;;;;;5014008;28;1413;-67
2022/03/13 11:24:48;;;;;;;;;;;20.20;53.80;;;;;;5013400;28;1359;-66
2022/03/13 11:27:15;;;;;;;;;;;20.20;53.80;;;;;;5013662;28;1902;-67
2022/03/13 11:29:43;;;;;;;;;;;20.20;53.80;;;;;;5014298;28;1280;-67
2022/03/13 11:32:27;;;;;;;;;;;20.10;53.70;;;;;;5013462;28;1301;-67
2022/03/13 11:35:07;;;;;;;;;;;20.20;53.80;;;;;;5013209;28;1366;-67
2022/03/13 11:37:33;;;;;;;;;;;20.20;53.80;;;;;;5025298;28;1112;-67
2022/03/13 11:39:59;;;;;;;;;;;20.20;53.80;;;;;;5033875;28;1345;-67
2022/03/13 11:42:24;;;;;;;;;;;20.10;53.80;;;;;;5034323;28;1285;-67
2022/03/13 11:44:50;;;;;;;;;;;20.10;53.80;;;;;;5033968;28;1364;-67
2022/03/13 11:47:23;;;;;;;;;;;20.10;53.90;;;;;;5033143;28;1902;-67
2022/03/13 11:49:49;;;;;;;;;;;20.10;53.90;;;;;;5029102;28;1299;-66
2022/03/13 11:52:17;;;;;;;;;;;20.10;54.50;;;;;;5013302;28;1418;-67
2022/03/13 11:55:07;;;;;;;;;;;20.10;53.90;;;;;;5012724;28;1313;-66
2022/03/13 11:57:42;;;;;;;;;;;20.10;53.90;;;;;;5013853;28;1164;-67
2022/03/13 12:00:10;;;;;;;;;;;20.10;54.00;;;;;;5012133;28;1363;-67
2022/03/13 12:02:42;;;;;;;;;;;20.10;54.00;;;;;;5011764;28;1646;-67
2022/03/13 12:05:28;;;;;;;;;;;20.00;54.00;;;;;;5014081;28;1273;-67
2022/03/13 12:07:54;;;;;;;;;;;20.00;54.00;;;;;;5012713;28;2004;-66
2022/03/13 12:10:41;;;;;;;;;;;20.00;54.10;;;;;;5012704;28;1352;-68
2022/03/13 12:13:13;;;;;;;;;;;20.00;54.10;;;;;;5014216;28;1119;-67
2022/03/13 12:15:41;;;;;;;;;;;20.00;54.10;;;;;;5013625;28;1276;-67
2022/03/13 12:18:16;;;;;;;;;;;20.00;54.80;;;;;;5013739;28;1313;-67
2022/03/13 12:20:43;;;;;;;;;;;20.00;54.20;;;;;;5013322;28;1295;-66
2022/03/13 12:23:09;;;;;;;;;;;20.00;54.20;;;;;;5013879;28;1270;-67
2022/03/13 12:25:34;;;;;;;;;;;20.00;54.20;;;;;;5013683;28;1283;-67
2022/03/13 12:28:01;;;;;;;;;;;20.00;54.20;;;;;;5012807;28;1903;-66
2022/03/13 12:30:30;;;;;;;;;;;20.00;54.20;;;;;;5012791;28;1330;-68
2022/03/13 12:32:59;;;;;;;;;;;20.10;54.20;;;;;;5012770;28;1288;-67
2022/03/13 12:35:25;;;;;;;;;;;20.00;54.10;;;;;;5013193;28;1502;-67
2022/03/13 12:37:57;;;;;;;;;;;20.00;54.00;;;;;;5013531;28;1303;-67
2022/03/13 12:40:23;;;;;;;;;;;20.10;54.00;;;;;;5012864;28;1275;-66
2022/03/13 12:42:55;;;;;;;;;;;20.10;54.00;;;;;;5012303;28;1280;-66
2022/03/13 12:45:22;;;;;;;;;;;20.10;53.90;;;;;;5012464;28;1296;-66
2022/03/13 12:47:49;;;;;;;;;;;20.20;54.00;;;;;;5012138;28;1966;-66
2022/03/13 12:50:18;;;;;;;;;;;20.20;53.90;;;;;;5011791;28;1630;-66
2022/03/13 12:52:46;;;;;;;;;;;20.20;53.90;;;;;;5010479;28;1898;-67
2022/03/13 12:55:11;;;;;;;;;;;20.20;53.80;;;;;;5007870;28;1730;-67
2022/03/13 12:57:37;;;;;;;;;;;20.20;53.80;;;;;;5017248;28;1251;-67
2022/03/13 13:00:04;;;;;;;;;;;20.20;53.80;;;;;;5032599;28;1315;-66
2022/03/13 13:02:32;;;;;;;;;;;20.20;53.80;;;;;;5033369;28;1274;-66
2022/03/13 13:05:02;;;;;;;;;;;20.20;53.80;;;;;;5032933;28;1263;-67
2022/03/13 13:07:32;;;;;;;;;;;20.20;53.80;;;;;;5031835;28;1963;-67
2022/03/13 13:09:58;;;;;;;;;;;20.20;53.80;;;;;;5031276;28;1370;-66
2022/03/13 13:12:28;;;;;;;;;;;20.20;53.80;;;;;;5032761;28;1087;-66
2022/03/13 13:14:54;;;;;;;;;;;20.20;53.80;;;;;;5017205;28;1213;-66
2022/03/13 13:17:24;;;;;;;;;;;20.20;53.80;;;;;;5012585;28;1222;-67
2022/03/13 13:19:53;;;;;;;;;;;20.20;53.90;;;;;;5012386;28;1274;-66
2022/03/13 13:22:22;;;;;;;;;;;20.20;53.90;;;;;;5011612;28;1354;-67
2022/03/13 13:24:52;;;;;;;;;;;20.20;53.90;;;;;;5013240;28;1278;-66
2022/03/13 13:27:33;;;;;;;;;;;20.20;54.00;;;;;;5011675;28;1898;-66
2022/03/13 13:29:58;;;;;;;;;;;20.10;53.90;;;;;;5011855;28;1240;-67
2022/03/13 13:32:24;;;;;;;;;;;20.10;53.90;;;;;;5007869;28;1573;-67
2022/03/13 13:35:02;;;;;;;;;;;20.10;54.00;;;;;;5010301;28;1280;-67
2022/03/13 13:37:28;;;;;;;;;;;20.10;54.00;;;;;;5015284;28;1126;-68
2022/03/13 13:40:11;;;;;;;;;;;20.10;54.00;;;;;;5011190;28;1282;-66
2022/03/13 13:42:37;;;;;;;;;;;20.10;54.00;;;;;;5010901;28;1282;-66
2022/03/13 13:45:03;;;;;;;;;;;20.10;54.10;;;;;;5010595;28;1321;-67
2022/03/13 13:47:29;;;;;;;;;;;20.00;54.10;;;;;;5011368;28;1875;-66
2022/03/13 13:49:54;;;;;;;;;;;20.00;54.10;;;;;;5007974;28;1774;-67
2022/03/13 13:52:29;;;;;;;;;;;20.00;54.20;;;;;;5012739;28;1292;-67
2022/03/13 13:54:54;;;;;;;;;;;20.00;54.20;;;;;;5012629;28;1218;-66
2022/03/13 13:57:20;;;;;;;;;;;20.00;54.20;;;;;;5012517;28;1291;-66
2022/03/13 13:59:46;;;;;;;;;;;20.00;54.20;;;;;;5012080;28;1375;-67
2022/03/13 14:02:13;;;;;;;;;;;20.00;54.20;;;;;;5008058;28;1926;-67
2022/03/13 14:04:58;;;;;;;;;;;20.00;54.30;;;;;;5004440;28;1528;-67
2022/03/13 14:07:24;;;;;;;;;;;19.90;54.30;;;;;;5007830;28;1898;-66
2022/03/13 14:09:58;;;;;;;;;;;19.90;54.30;;;;;;5003566;28;1279;-67
2022/03/13 14:12:23;;;;;;;;;;;19.90;54.40;;;;;;5024573;28;1054;-68
2022/03/13 14:14:49;;;;;;;;;;;19.90;54.40;;;;;;5004924;28;1357;-68
2022/03/13 14:17:14;;;;;;;;;;;19.90;54.40;;;;;;5009928;28;1073;-67
2022/03/13 14:19:39;;;;;;;;;;;19.90;54.40;;;;;;5012298;28;1254;-67
2022/03/13 14:22:06;;;;;;;;;;;19.90;54.50;;;;;;5012445;28;1243;-68
2022/03/13 14:24:34;;;;;;;;;;;19.90;54.50;;;;;;5012175;28;1383;-68
2022/03/13 14:26:59;;;;;;;;;;;19.90;54.50;;;;;;5015009;28;1910;-68
2022/03/13 14:29:25;;;;;;;;;;;19.90;54.50;;;;;;5014909;28;1086;-69